Main page
METAR-TAF:

METAR-TAF

Airports :

Cambridge Airport

Cambridge, England

latitude: 52-12N, longitude: 000-11E, elevation: 15 m

Current weather observation

The report was made 11 hours and 57 minutes ago, at 16:50 UTC
Wind 7 kt from the West/Northwest, varying between West/Southwest and North
Temperature 27°C
Humidity 37%
Pressure 1013 hPa
Visibility 10 km or more
no clouds below 1500 m and no cumulonimbus

METAR: EGSC 211650Z 29007KT 240V350 CAVOK 27/11 Q1013

Time: 05:47 (04:47 UTC)

Forecast

The report was made 14 hours and 48 minutes ago, at 13:59 UTC
Forecast valid from 21 at 15 UTC to 21 at 19 UTC
Wind 5 kt from variable directions
Visibility 10 km or more
Few clouds at a height of 3500 ft

TAF: EGSC 211359Z 2115/2119 VRB05KT 9999 FEW035

Weather observations and forecasts of more than 4000 airports (METAR and TAF reports).

The available stations are represented by yellow and red dots on the map.

Hover mouse over dot to see the name of the station.

Then click to see weather observations and forecasts.

To change the map : click on the green buttons with a black cross to zoom in, on the green button with a dash to zoom out, or on the green arrows for adjacent maps.


METAR-TAF: